地図

経路データ

SID SEASON NUMBER BASIN SUBBASIN NAME ISO_TIME NATURE LAT LON WMO_WIND WMO_PRES WMO_AGENCY TRACK_TYPE DIST2LAND LANDFALL IFLAG USA_AGENCY USA_ATCF_ID USA_LAT USA_LON USA_RECORD USA_STATUS USA_WIND USA_PRES USA_SSHS USA_R34_NE USA_R34_SE USA_R34_SW USA_R34_NW USA_R50_NE USA_R50_SE USA_R50_SW USA_R50_NW USA_R64_NE USA_R64_SE USA_R64_SW USA_R64_NW USA_POCI USA_ROCI USA_RMW USA_EYE TOKYO_LAT TOKYO_LON TOKYO_GRADE TOKYO_WIND TOKYO_PRES TOKYO_R50_DIR TOKYO_R50_LONG TOKYO_R50_SHORT TOKYO_R30_DIR TOKYO_R30_LONG TOKYO_R30_SHORT TOKYO_LAND CMA_LAT CMA_LON CMA_CAT CMA_WIND CMA_PRES HKO_LAT HKO_LON HKO_CAT HKO_WIND HKO_PRES NEWDELHI_LAT NEWDELHI_LON NEWDELHI_GRADE NEWDELHI_WIND NEWDELHI_PRES NEWDELHI_CI NEWDELHI_DP NEWDELHI_POCI REUNION_LAT REUNION_LON REUNION_TYPE REUNION_WIND REUNION_PRES REUNION_TNUM REUNION_CI REUNION_RMW REUNION_R34_NE REUNION_R34_SE REUNION_R34_SW REUNION_R34_NW REUNION_R50_NE REUNION_R50_SE REUNION_R50_SW REUNION_R50_NW REUNION_R64_NE REUNION_R64_SE REUNION_R64_SW REUNION_R64_NW BOM_LAT BOM_LON BOM_TYPE BOM_WIND BOM_PRES BOM_TNUM BOM_CI BOM_RMW BOM_R34_NE BOM_R34_SE BOM_R34_SW BOM_R34_NW BOM_R50_NE BOM_R50_SE BOM_R50_SW BOM_R50_NW BOM_R64_NE BOM_R64_SE BOM_R64_SW BOM_R64_NW BOM_ROCI BOM_POCI BOM_EYE BOM_POS_METHOD BOM_PRES_METHOD NADI_LAT NADI_LON NADI_CAT NADI_WIND NADI_PRES WELLINGTON_LAT WELLINGTON_LON WELLINGTON_WIND WELLINGTON_PRES DS824_LAT DS824_LON DS824_STAGE DS824_WIND DS824_PRES TD9636_LAT TD9636_LON TD9636_STAGE TD9636_WIND TD9636_PRES TD9635_LAT TD9635_LON TD9635_WIND TD9635_PRES TD9635_ROCI NEUMANN_LAT NEUMANN_LON NEUMANN_CLASS NEUMANN_WIND NEUMANN_PRES MLC_LAT MLC_LON MLC_CLASS MLC_WIND MLC_PRES USA_GUST BOM_GUST BOM_GUST_PER REUNION_GUST REUNION_GUST_PER USA_SEAHGT USA_SEARAD_NE USA_SEARAD_SE USA_SEARAD_SW USA_SEARAD_NW STORM_SPEED STORM_DIR
1897166N20089 1897 13 NI BB NOT_NAMED 1897-06-15 00:00:00 TS 19.9000 88.5000 main 180 180 _________O____ -1 19.9000 88.5000 TC 30 0 0
1897166N20089 1897 13 NI BB NOT_NAMED 1897-06-15 03:00:00 TS 19.9000 88.5000 main 180 180 _________PO___ -1 19.9000 88.5000 TC 30 19.9000 88.5000 1 0 0
1897166N20089 1897 13 NI BB NOT_NAMED 1897-06-15 06:00:00 TS 19.9038 88.4938 main 180 180 _________OP___ -1 19.9000 88.5000 TC 30 19.9094 88.4844 1 0 0
1897166N20089 1897 13 NI BB NOT_NAMED 1897-06-15 09:00:00 TS 19.9065 88.4893 main 180 180 _________PP___ -1 19.9000 88.5000 TC 30 19.9151 88.4751 1 0 0
1897166N20089 1897 13 NI BB NOT_NAMED 1897-06-15 12:00:00 TS 19.9066 88.4891 main 180 180 _________OP___ -1 19.9000 88.5000 TC 30 19.9132 88.4782 1 0 0
1897166N20089 1897 13 NI BB NOT_NAMED 1897-06-15 15:00:00 TS 19.9000 88.5000 main 180 180 _________PO___ -1 19.9000 88.5000 TC 30 19.9000 88.5000 1 0 118
1897166N20089 1897 13 NI BB NOT_NAMED 1897-06-15 18:00:00 TS 19.8878 88.5202 main 180 180 _________OP___ -1 19.9000 88.5000 TC 30 19.8755 88.5405 1 1 116
1897166N20089 1897 13 NI BB NOT_NAMED 1897-06-15 21:00:00 TS 19.8699 88.5523 main 189 180 _________PP___ -1 19.8850 88.5300 TC 30 19.8548 88.5747 1 0 0
1897166N20089 1897 13 NI BB NOT_NAMED 1897-06-16 00:00:00 TS 19.8783 88.5358 main 180 171 _________OP___ -1 19.9000 88.5000 TC 30 19.8567 88.5716 1 1 297
1897166N20089 1897 13 NI BB NOT_NAMED 1897-06-16 03:00:00 TS 19.9350 88.4225 main 171 147 _________PO___ -1 19.9700 88.3449 TC 30 19.9000 88.5000 1 4 299
1897166N20089 1897 13 NI BB NOT_NAMED 1897-06-16 06:00:00 TS 20.0495 88.2110 main 147 118 _________OP___ -1 20.1000 88.1000 TC 30 19.9989 88.3220 1 5 302
1897166N20089 1897 13 NI BB NOT_NAMED 1897-06-16 09:00:00 TS 20.2127 87.9414 main 109 80 _________PP___ -1 20.2851 87.8076 TC 30 20.1403 88.0752 1 6 304
1897166N20089 1897 13 NI BB NOT_NAMED 1897-06-16 12:00:00 TS 20.4057 87.6454 main 70 43 _________OP___ -1 20.5000 87.5000 TC 30 20.3114 87.7907 1 7 306
1897166N20089 1897 13 NI BB NOT_NAMED 1897-06-16 15:00:00 TS 20.6000 87.3712 main 43 10 _________PO___ -1 20.6999 87.2424 TC 30 20.5000 87.5000 1 6 309
1897166N20089 1897 13 NI BB NOT_NAMED 1897-06-16 18:00:00 TS 20.8009 87.1210 main 10 0 _________OP___ -1 20.9000 87.0000 TC 30 20.7018 87.2421 1 6 311
1897166N20089 1897 13 NI BB NOT_NAMED 1897-06-16 21:00:00 TS 21.0150 86.8639 main 10 0 _________PP___ -1 21.1150 86.7425 TC 30 20.9150 86.9853 1 6 311
1897166N20089 1897 13 NI BB NOT_NAMED 1897-06-17 00:00:00 TS 21.2103 86.6179 main 0 0 _________OP___ -1 21.3000 86.5000 TC 30 21.1206 86.7358 1 6 308
1897166N20089 1897 13 NI BB NOT_NAMED 1897-06-17 03:00:00 TS 21.3575 86.3962 main 0 0 _________PO___ -1 21.4149 86.2924 TC 30 21.3000 86.5000 1 5 302
1897166N20089 1897 13 NI BB NOT_NAMED 1897-06-17 06:00:00 TS 21.4623 86.1866 main 0 0 _________OP___ -1 21.5000 86.1000 TC 30 21.4246 86.2731 1 4 298
1897166N20089 1897 13 NI BB NOT_NAMED 1897-06-17 09:00:00 TS 21.5612 85.9773 main 0 0 _________PP___ -1 21.6000 85.8925 TC 30 21.5224 86.0621 1 4 297
1897166N20089 1897 13 NI BB NOT_NAMED 1897-06-17 12:00:00 TS 21.6545 85.7850 main 0 0 _________OP___ -1 21.7000 85.7000 TC 30 21.6090 85.8701 1 4 299
1897166N20089 1897 13 NI BB NOT_NAMED 1897-06-17 15:00:00 TS 21.7462 85.6175 main 0 0 _________PO___ -1 21.7925 85.5350 TC 30 21.7000 85.7000 1 3 306
1897166N20089 1897 13 NI BB NOT_NAMED 1897-06-17 18:00:00 TS 21.8402 85.5106 main 0 0 _________OP___ -1 21.9000 85.4000 TC 30 21.7804 85.6212 1 2 323
1897166N20089 1897 13 NI BB NOT_NAMED 1897-06-17 21:00:00 TS 21.9429 85.4562 main 0 0 _________PP___ -1 22.0122 85.3595 TC 30 21.8736 85.5528 1 3 325
1897166N20089 1897 13 NI BB NOT_NAMED 1897-06-18 00:00:00 TS 22.1025 85.3166 main 0 0 _________OP___ -1 22.2000 85.2000 TC 30 22.0050 85.4331 1 6 312
1897166N20089 1897 13 NI BB NOT_NAMED 1897-06-18 03:00:00 TS 22.3602 84.9589 main 0 0 _________PO___ -1 22.5203 84.7178 TC 30 22.2000 85.2000 1 10 306
1897166N20089 1897 13 NI BB NOT_NAMED 1897-06-18 06:00:00 TS 22.7039 84.4050 main 0 0 _________OP___ -1 22.9000 84.1000 TC 30 22.5077 84.7099 1 13 304
1897166N20089 1897 13 NI BB NOT_NAMED 1897-06-18 09:00:00 TS 23.0692 83.8009 main 0 0 _________PP___ -1 23.2653 83.4903 TC 30 22.8731 84.1114 1 13 304
1897166N20089 1897 13 NI BB NOT_NAMED 1897-06-18 12:00:00 TS 23.4258 83.2534 main 0 0 _________OP___ -1 23.6000 83.0000 TC 30 23.2516 83.5068 1 11 309
1897166N20089 1897 13 NI BB NOT_NAMED 1897-06-18 15:00:00 TS 23.7361 82.8947 main 0 0 _________PO___ -1 23.8721 82.7895 TC 30 23.6000 83.0000 1 7 321
1897166N20089 1897 13 NI BB NOT_NAMED 1897-06-18 18:00:00 TS 23.9977 82.7531 main 0 0 _________OP___ -1 24.1000 82.7000 TC 30 23.8953 82.8063 1 6 338
1897166N20089 1897 13 NI BB NOT_NAMED 1897-06-18 21:00:00 TS 24.2445 82.6652 main 0 0 _________PP___ -1 24.3371 82.6174 TC 30 24.1520 82.7129 1 5 332
1897166N20089 1897 13 NI BB NOT_NAMED 1897-06-19 00:00:00 TS 24.4289 82.5066 main 0 0 _________OP___ -1 24.5000 82.4000 TC 30 24.3577 82.6132 1 6 299
1897166N20089 1897 13 NI BB NOT_NAMED 1897-06-19 03:00:00 TS 24.5152 82.1336 main 0 0 _________PO___ -1 24.5303 81.8673 TC 30 24.5000 82.4000 1 9 277
1897166N20089 1897 13 NI BB NOT_NAMED 1897-06-19 06:00:00 TS 24.5335 81.5360 main 0 0 _________OP___ -1 24.5000 81.2000 TC 30 24.5671 81.8720 1 11 271
1897166N20089 1897 13 NI BB NOT_NAMED 1897-06-19 09:00:00 TS 24.5356 80.8920 main 0 0 _________PP___ -1 24.5002 80.5550 TC 30 24.5710 81.2291 1 11 269
1897166N20089 1897 13 NI BB NOT_NAMED 1897-06-19 12:00:00 TS 24.5195 80.2859 main 0 0 _________OP___ -1 24.5000 80.0000 TC 30 24.5390 80.5718 1 10 268
1897166N20089 1897 13 NI BB NOT_NAMED 1897-06-19 15:00:00 TS 24.4998 79.8200 main 0 0 _________PO___ -1 24.4997 79.6400 TC 30 24.5000 80.0000 1 7 267
1897166N20089 1897 13 NI BB NOT_NAMED 1897-06-19 18:00:00 TS 24.4877 79.5079 main 0 0 _________OP___ -1 24.5000 79.4000 TC 30 24.4785 79.5888 1 5 268
1897166N20089 1897 13 NI BB NOT_NAMED 1897-06-19 21:00:00 TS 24.4852 79.2675 main 0 0 _________PP___ -1 24.5002 79.1950 TC 30 24.4752 79.3158 1 4 270
1897166N20089 1897 13 NI BB NOT_NAMED 1897-06-20 00:00:00 TS 24.4896 79.0899 main 0 0 _________OP___ -1 24.5000 79.0000 TC 30 24.4844 79.1349 1 2 273
1897166N20089 1897 13 NI BB NOT_NAMED 1897-06-20 03:00:00 NR 24.5000 79.0000 main 0 __________O___ -1 TC 24.5000 79.0000 1 2 278

IBTrACS Databaseについて

本データベースは、米国NOAAが公開する1842年以降の世界の熱帯低気圧のベストトラックデータアーカイブInternational Best Track Archive for Climate Stewardship (IBTrACS)を、ウェブで閲覧しやすい形式に変換したものです。

最終更新日:2021-10-25